createdAt,value
2022-12-05T00:01:47.519Z,6.40
2022-12-05T00:04:15.282Z,5.97
2022-12-05T00:06:42.991Z,5.57
2022-12-05T00:09:12.254Z,5.60
2022-12-05T00:11:42.717Z,6.60
2022-12-05T00:14:11.363Z,6.63
2022-12-05T00:16:41.246Z,5.93
2022-12-05T00:19:10.938Z,6.03
2022-12-05T00:21:38.400Z,5.65
2022-12-05T00:24:07.744Z,5.78
2022-12-05T00:26:35.995Z,5.53
2022-12-05T00:29:04.089Z,5.10
2022-12-05T00:31:31.872Z,6.05
2022-12-05T00:34:02.896Z,6.03
2022-12-05T00:36:33.467Z,5.80
2022-12-05T00:39:04.559Z,5.93
2022-12-05T00:41:31.931Z,5.32
2022-12-05T00:44:01.093Z,5.75
2022-12-05T00:46:30.124Z,5.90
2022-12-05T00:48:58.680Z,5.68
2022-12-05T00:51:29.863Z,4.82
2022-12-05T00:54:02.196Z,5.97
2022-12-05T00:56:30.786Z,5.57
2022-12-05T00:59:00.503Z,5.38
2022-12-05T01:01:33.010Z,5.70
2022-12-05T01:04:03.663Z,6.18
2022-12-05T01:06:31.343Z,5.78
2022-12-05T01:08:58.864Z,5.05
2022-12-05T01:11:27.575Z,5.00
2022-12-05T01:13:55.517Z,7.03
2022-12-05T01:16:35.218Z,10.70
2022-12-05T01:19:06.808Z,9.68
2022-12-05T01:21:34.207Z,10.20
2022-12-05T01:24:01.650Z,10.65
2022-12-05T01:26:29.168Z,10.77
2022-12-05T01:28:56.835Z,10.18
2022-12-05T01:31:30.263Z,10.65
2022-12-05T01:34:00.041Z,11.10
2022-12-05T01:36:28.277Z,10.35
2022-12-05T01:38:56.314Z,10.18
2022-12-05T01:41:27.939Z,12.48
2022-12-05T01:44:26.946Z,10.10
2022-12-05T01:46:56.643Z,9.23
2022-12-05T01:49:31.408Z,11.55
2022-12-05T01:52:03.505Z,10.27
2022-12-05T01:57:04.132Z,11.85
2022-12-05T01:59:35.963Z,9.77
2022-12-05T02:02:04.160Z,10.68
2022-12-05T02:04:35.533Z,9.43
2022-12-05T02:07:02.918Z,11.02
2022-12-05T02:09:30.305Z,10.15
2022-12-05T02:12:01.889Z,9.95
2022-12-05T02:14:46.289Z,10.13
2022-12-05T02:17:24.198Z,10.13
2022-12-05T02:20:20.084Z,10.02
2022-12-05T02:23:26.067Z,10.00
2022-12-05T02:26:25.642Z,10.70
2022-12-05T02:29:22.909Z,11.37
2022-12-05T02:32:18.069Z,11.67
2022-12-05T02:35:26.208Z,11.67
2022-12-05T02:38:13.721Z,10.93
2022-12-05T02:41:06.748Z,10.10
2022-12-05T02:44:02.076Z,11.53
2022-12-05T02:46:31.593Z,10.17
2022-12-05T02:49:03.632Z,9.33
2022-12-05T02:51:36.649Z,10.85
2022-12-05T02:57:57.657Z,11.10
2022-12-05T03:00:25.034Z,10.87
2022-12-05T03:02:56.493Z,10.67
2022-12-05T03:05:37.816Z,10.73
2022-12-05T03:08:08.033Z,11.43
2022-12-05T03:10:38.342Z,9.63
2022-12-05T03:13:21.251Z,10.07
2022-12-05T03:15:53.142Z,10.63
2022-12-05T03:18:33.886Z,11.27
2022-12-05T03:21:38.948Z,9.40
2022-12-05T03:24:13.701Z,11.00
2022-12-05T03:27:10.342Z,11.13
2022-12-05T03:29:58.668Z,11.97
2022-12-05T03:32:38.789Z,10.23
2022-12-05T03:35:50.495Z,10.40
2022-12-05T03:38:30.095Z,10.30
2022-12-05T03:41:23.054Z,10.47
2022-12-05T03:44:13.764Z,11.02
2022-12-05T03:46:48.351Z,11.65
2022-12-05T03:49:39.531Z,12.50
2022-12-05T03:52:20.533Z,11.43
2022-12-05T03:54:56.041Z,11.60
2022-12-05T03:57:28.929Z,11.73
2022-12-05T04:00:01.664Z,10.63
2022-12-05T04:02:45.613Z,12.57
2022-12-05T04:05:26.751Z,12.20
2022-12-05T04:08:03.153Z,10.65
2022-12-05T04:10:48.533Z,11.07
2022-12-05T04:13:19.107Z,12.17
2022-12-05T04:16:11.971Z,12.10
2022-12-05T04:18:46.707Z,10.83
2022-12-05T04:21:34.095Z,9.73
2022-12-05T04:24:20.282Z,12.33
2022-12-05T04:26:53.358Z,11.60
2022-12-05T04:29:34.455Z,11.33
2022-12-05T04:32:07.014Z,11.13
2022-12-05T04:34:37.786Z,11.50
2022-12-05T04:37:12.949Z,11.93
2022-12-05T04:39:57.049Z,10.97
2022-12-05T04:42:28.304Z,12.07
2022-12-05T04:45:00.827Z,11.47
2022-12-05T04:47:32.775Z,11.57
2022-12-05T04:50:01.969Z,9.85
2022-12-05T04:52:31.447Z,11.67
2022-12-05T04:55:10.340Z,13.77
2022-12-05T04:58:00.223Z,11.77
2022-12-05T05:00:32.111Z,12.53
2022-12-05T05:03:07.312Z,11.23
2022-12-05T05:05:37.762Z,12.05
2022-12-05T05:08:05.580Z,10.52
2022-12-05T05:10:49.415Z,10.52
2022-12-05T05:13:16.773Z,11.03
2022-12-05T05:15:44.131Z,12.02
2022-12-05T05:18:11.576Z,12.23
2022-12-05T05:20:39.229Z,10.18
2022-12-05T05:23:06.606Z,12.23
2022-12-05T05:25:33.998Z,12.80
2022-12-05T05:28:01.728Z,12.97
2022-12-05T05:30:29.261Z,10.77
2022-12-05T05:32:56.605Z,11.57
2022-12-05T05:35:23.942Z,13.83
2022-12-05T05:37:54.425Z,11.57
2022-12-05T05:40:21.827Z,13.77
2022-12-05T05:42:51.008Z,12.57
2022-12-05T05:45:18.399Z,11.30
2022-12-05T05:47:48.718Z,12.60
2022-12-05T05:50:21.520Z,11.95
2022-12-05T05:52:49.506Z,12.93
2022-12-05T05:55:16.858Z,10.67
2022-12-05T05:57:44.366Z,13.20
2022-12-05T06:00:12.516Z,11.35
2022-12-05T06:02:40.258Z,13.50
2022-12-05T06:05:08.225Z,12.03
2022-12-05T06:07:35.678Z,12.77
2022-12-05T06:10:03.754Z,13.20
2022-12-05T06:12:31.216Z,12.80
2022-12-05T06:14:59.290Z,12.57
2022-12-05T06:17:26.726Z,12.60
2022-12-05T06:19:54.133Z,12.93
2022-12-05T06:22:21.490Z,12.03
2022-12-05T06:24:48.821Z,11.55
2022-12-05T06:27:16.426Z,11.83
2022-12-05T06:29:43.861Z,12.80
2022-12-05T06:32:11.289Z,13.97
2022-12-05T06:34:38.769Z,13.00
2022-12-05T06:37:06.335Z,13.20
2022-12-05T06:39:34.352Z,11.82
2022-12-05T06:42:03.616Z,11.27
2022-12-05T06:44:31.326Z,12.38
2022-12-05T06:46:58.945Z,13.13
2022-12-05T06:49:36.384Z,11.52
2022-12-05T06:52:05.605Z,11.45
2022-12-05T06:54:33.288Z,12.17
2022-12-05T06:57:01.205Z,11.75
2022-12-05T06:59:28.774Z,11.90
2022-12-05T07:01:57.518Z,14.18
2022-12-05T07:04:24.917Z,12.77
2022-12-05T07:06:54.704Z,12.70
2022-12-05T07:09:46.108Z,12.43
2022-12-05T07:12:15.424Z,10.73
2022-12-05T07:14:48.617Z,13.65
2022-12-05T07:17:21.182Z,11.82
2022-12-05T07:19:50.004Z,13.52
2022-12-05T07:22:20.974Z,13.13
2022-12-05T07:24:51.054Z,13.15
2022-12-05T07:27:23.295Z,15.35
2022-12-05T07:29:54.623Z,12.75
2022-12-05T07:32:22.175Z,10.98
2022-12-05T07:34:54.781Z,11.63
2022-12-05T07:37:24.025Z,12.48
2022-12-05T07:39:55.247Z,12.20
2022-12-05T07:42:23.066Z,11.40
2022-12-05T07:44:50.621Z,12.10
2022-12-05T07:47:18.451Z,10.63
2022-12-05T07:49:46.244Z,9.77
2022-12-05T07:52:13.861Z,11.88
2022-12-05T07:54:41.668Z,12.57
2022-12-05T07:57:09.480Z,10.90
2022-12-05T07:59:37.740Z,12.15
2022-12-05T08:02:05.608Z,11.63
2022-12-05T08:04:33.056Z,12.25
2022-12-05T08:07:00.504Z,14.85
2022-12-05T08:09:27.821Z,12.18
2022-12-05T08:11:55.277Z,10.02
2022-12-05T08:14:22.704Z,11.45
2022-12-05T08:16:50.207Z,11.25
2022-12-05T08:19:17.773Z,12.80
2022-12-05T08:21:45.378Z,12.52
2022-12-05T08:24:13.106Z,12.65
2022-12-05T08:26:41.900Z,12.48
2022-12-05T08:29:12.179Z,11.27
2022-12-05T08:31:47.327Z,12.73
2022-12-05T08:34:16.233Z,11.27
2022-12-05T08:36:43.814Z,12.35
2022-12-05T08:39:15.104Z,13.43
2022-12-05T08:41:46.583Z,14.40
2022-12-05T08:44:18.894Z,13.02
2022-12-05T08:46:48.825Z,14.00
2022-12-05T08:49:17.146Z,11.85
2022-12-05T08:51:45.134Z,13.00
2022-12-05T08:54:12.763Z,14.57
2022-12-05T08:56:40.476Z,13.05
2022-12-05T08:59:07.892Z,12.15
2022-12-05T09:01:38.764Z,13.43
2022-12-05T09:04:07.457Z,12.65
2022-12-05T09:06:36.468Z,12.57
2022-12-05T09:09:08.362Z,12.82
2022-12-05T09:11:41.215Z,11.55
2022-12-05T09:14:09.066Z,13.25
2022-12-05T09:16:39.238Z,12.05
2022-12-05T09:19:17.120Z,10.82
2022-12-05T09:21:45.008Z,12.52
2022-12-05T09:24:13.608Z,10.85
2022-12-05T09:26:41.863Z,12.00
2022-12-05T09:29:16.335Z,12.68
2022-12-05T09:31:46.352Z,13.02
2022-12-05T09:34:14.966Z,11.40
2022-12-05T09:36:42.898Z,10.90
2022-12-05T09:39:11.018Z,12.60
2022-12-05T09:42:05.070Z,11.35
2022-12-05T09:45:15.326Z,12.07
2022-12-05T09:48:15.719Z,12.50
2022-12-05T09:50:50.072Z,12.80
2022-12-05T09:53:30.875Z,11.75
2022-12-05T09:56:21.258Z,12.13
2022-12-05T09:58:53.732Z,13.45
2022-12-05T10:02:02.311Z,11.80
2022-12-05T10:05:00.357Z,11.88
2022-12-05T10:07:41.218Z,10.93
2022-12-05T10:10:49.023Z,11.57
2022-12-05T10:13:33.298Z,12.90
2022-12-05T10:16:13.719Z,11.27
2022-12-05T10:18:47.123Z,11.80
2022-12-05T10:21:26.575Z,11.27
2022-12-05T10:24:05.126Z,10.77
2022-12-05T10:26:59.611Z,11.98
2022-12-05T10:30:00.021Z,11.70
2022-12-05T10:32:37.592Z,11.45
2022-12-05T10:35:15.437Z,11.70
2022-12-05T10:37:55.838Z,13.40
2022-12-05T10:40:26.399Z,11.98
2022-12-05T10:42:54.119Z,11.82
2022-12-05T10:45:23.869Z,11.70
2022-12-05T10:47:56.102Z,13.27
2022-12-05T10:50:34.066Z,11.35
2022-12-05T10:53:04.169Z,11.23
2022-12-05T10:55:41.221Z,11.73
2022-12-05T10:58:18.006Z,11.57
2022-12-05T11:00:49.005Z,11.45
2022-12-05T11:03:30.670Z,9.80
2022-12-05T11:06:02.274Z,10.35
2022-12-05T11:09:03.232Z,9.05
2022-12-05T11:11:24.279Z,11.93
2022-12-05T11:13:56.954Z,8.88
2022-12-05T11:16:35.973Z,10.05
2022-12-05T11:19:42.217Z,10.32
2022-12-05T11:22:17.207Z,10.38
2022-12-05T11:24:44.628Z,8.98
2022-12-05T11:27:32.262Z,9.20
2022-12-05T11:30:13.730Z,8.68
2022-12-05T11:32:41.148Z,9.75
2022-12-05T11:35:28.861Z,8.55
2022-12-05T11:38:03.007Z,7.40
2022-12-05T11:41:10.278Z,6.88
2022-12-05T11:43:46.120Z,6.47
2022-12-05T11:46:37.746Z,5.63
2022-12-05T11:49:47.184Z,4.68
2022-12-05T11:52:54.607Z,4.53
2022-12-05T11:55:33.835Z,4.50
2022-12-05T11:58:52.349Z,5.07
2022-12-05T12:01:56.156Z,4.10
2022-12-05T12:04:51.805Z,3.97
2022-12-05T12:07:38.317Z,3.33
2022-12-05T12:10:51.250Z,3.28
2022-12-05T12:13:55.380Z,3.20
2022-12-05T12:17:07.862Z,2.30
2022-12-05T12:20:30.042Z,3.70
2022-12-05T12:35:16.826Z,2.55
2022-12-05T12:38:26.678Z,3.00
2022-12-05T12:40:58.313Z,2.45
2022-12-05T12:44:02.283Z,3.17
2022-12-05T12:46:59.425Z,2.33
2022-12-05T12:50:17.167Z,3.00
2022-12-05T12:53:23.487Z,2.78
2022-12-05T12:56:28.618Z,2.78
2022-12-05T13:02:47.897Z,2.67
2022-12-05T13:05:34.615Z,2.40
2022-12-05T13:08:07.427Z,3.15
2022-12-05T13:10:42.754Z,2.67
2022-12-05T13:13:19.375Z,4.30
2022-12-05T13:16:02.036Z,2.03
2022-12-05T13:18:30.364Z,2.28
2022-12-05T13:21:03.536Z,2.53
2022-12-05T13:23:40.994Z,2.67
2022-12-05T13:26:11.074Z,2.50
2022-12-05T13:28:59.582Z,4.28
2022-12-05T13:34:52.261Z,4.28
2022-12-05T13:37:46.971Z,3.15
2022-12-05T13:40:51.735Z,2.58
2022-12-05T13:43:22.766Z,2.35
2022-12-05T13:46:12.004Z,1.75
2022-12-05T13:48:45.157Z,2.17
2022-12-05T13:51:21.427Z,2.05
2022-12-05T13:53:58.265Z,2.33
2022-12-05T13:56:45.836Z,2.72
2022-12-05T13:59:13.284Z,2.22
2022-12-05T14:01:55.390Z,2.13
2022-12-05T14:04:51.108Z,4.00
2022-12-05T14:08:03.588Z,2.65
2022-12-05T14:11:11.927Z,3.33
2022-12-05T14:13:42.132Z,3.05
2022-12-05T14:16:24.576Z,3.17
2022-12-05T14:19:50.587Z,2.80
2022-12-05T14:22:47.603Z,3.45
2022-12-05T14:25:57.689Z,3.45
2022-12-05T14:28:47.968Z,3.47
2022-12-05T14:31:34.372Z,3.40
2022-12-05T14:34:25.283Z,3.28
2022-12-05T14:40:02.308Z,3.65
2022-12-05T14:42:43.137Z,3.35
2022-12-05T14:48:47.556Z,3.47
2022-12-05T14:57:21.814Z,3.53
2022-12-05T15:00:00.477Z,3.20
2022-12-05T15:02:36.091Z,4.00
2022-12-05T15:05:23.730Z,3.28
2022-12-05T15:07:52.028Z,3.75
2022-12-05T15:10:50.384Z,3.60
2022-12-05T15:13:21.246Z,3.75
2022-12-05T15:16:19.803Z,4.82
2022-12-05T15:18:50.686Z,3.22
2022-12-05T15:21:44.534Z,3.40
2022-12-05T15:24:18.978Z,3.85
2022-12-05T15:26:58.596Z,4.30
2022-12-05T15:29:29.228Z,3.50
2022-12-05T15:32:19.019Z,3.85
2022-12-05T15:35:00.203Z,3.90
2022-12-05T15:37:35.306Z,4.03
2022-12-05T15:40:14.245Z,4.50
2022-12-05T15:42:57.980Z,3.75
2022-12-05T15:45:30.727Z,3.60
2022-12-05T15:48:12.764Z,3.35
2022-12-05T15:50:43.403Z,4.45
2022-12-05T15:53:32.150Z,4.55
2022-12-05T15:56:09.628Z,4.10
2022-12-05T15:58:43.494Z,4.65
2022-12-05T16:01:22.886Z,3.92
2022-12-05T16:04:11.774Z,4.07
2022-12-05T16:06:49.734Z,4.32
2022-12-05T16:09:22.162Z,4.32
2022-12-05T16:12:16.939Z,4.47
2022-12-05T16:15:01.370Z,3.92
2022-12-05T16:17:41.083Z,3.63
2022-12-05T16:20:30.701Z,4.43
2022-12-05T16:23:05.186Z,4.32
2022-12-05T16:25:37.146Z,3.55
2022-12-05T16:28:33.654Z,3.80
2022-12-05T16:31:03.433Z,4.70
2022-12-05T16:33:31.917Z,3.97
2022-12-05T16:36:13.230Z,3.33
2022-12-05T16:38:45.340Z,3.50
2022-12-05T16:41:16.253Z,3.85
2022-12-05T16:43:45.977Z,3.38
2022-12-05T16:46:43.307Z,3.90
2022-12-05T16:49:34.583Z,3.47
2022-12-05T16:52:14.715Z,8.45
2022-12-05T16:54:46.206Z,4.15
2022-12-05T16:57:15.596Z,4.10
2022-12-05T16:59:44.160Z,4.78
2022-12-05T17:02:17.502Z,3.75
2022-12-05T17:04:47.037Z,3.13
2022-12-05T17:07:14.537Z,4.18
2022-12-05T17:09:42.052Z,3.85
2022-12-05T17:12:20.714Z,3.78
2022-12-05T17:14:48.425Z,4.13
2022-12-05T17:17:19.168Z,3.17
2022-12-05T17:19:46.708Z,5.10
2022-12-05T17:22:15.924Z,4.00
2022-12-05T17:24:43.607Z,3.97
2022-12-05T17:27:14.387Z,3.20
2022-12-05T17:29:41.911Z,3.33
2022-12-05T17:32:10.702Z,4.38
2022-12-05T17:34:38.016Z,6.75
2022-12-05T17:37:05.559Z,6.32
2022-12-05T17:39:32.895Z,3.92
2022-12-05T17:42:00.389Z,3.63
2022-12-05T17:44:27.963Z,4.65
2022-12-05T17:46:55.712Z,3.97
2022-12-05T17:49:23.270Z,3.50
2022-12-05T17:52:20.470Z,3.47
2022-12-05T17:54:41.222Z,2.90
2022-12-05T17:57:08.646Z,2.92
2022-12-05T17:59:36.054Z,3.15
2022-12-05T18:02:03.528Z,3.10
2022-12-05T18:04:30.920Z,3.38
2022-12-05T18:06:58.397Z,2.72
2022-12-05T18:09:25.825Z,3.13
2022-12-05T18:11:53.201Z,3.00
2022-12-05T18:14:20.530Z,2.45
2022-12-05T18:16:48.064Z,2.35
2022-12-05T18:19:15.549Z,2.88
2022-12-05T18:21:43.119Z,5.45
2022-12-05T18:24:10.892Z,2.80
2022-12-05T18:26:38.781Z,2.80
2022-12-05T18:29:06.117Z,3.33
2022-12-05T18:31:33.735Z,3.55
2022-12-05T18:34:01.141Z,2.85
2022-12-05T18:36:28.726Z,2.97
2022-12-05T18:38:57.823Z,2.53
2022-12-05T18:41:29.125Z,2.70
2022-12-05T18:43:56.609Z,1.95
2022-12-05T18:46:24.786Z,2.75
2022-12-05T18:48:52.292Z,2.58
2022-12-05T18:51:24.321Z,2.63
2022-12-05T18:53:53.617Z,2.55
2022-12-05T18:56:25.142Z,3.03
2022-12-05T18:58:55.306Z,2.85
2022-12-05T19:01:23.486Z,2.78
2022-12-05T19:03:51.136Z,2.70
2022-12-05T19:06:23.906Z,3.22
2022-12-05T19:08:55.445Z,3.08
2022-12-05T19:11:23.780Z,3.20
2022-12-05T19:13:57.599Z,3.03
2022-12-05T19:16:26.474Z,2.08
2022-12-05T19:18:56.067Z,3.40
2022-12-05T19:21:24.806Z,2.22
2022-12-05T19:23:53.082Z,2.88
2022-12-05T19:26:21.316Z,2.95
2022-12-05T19:28:49.316Z,2.65
2022-12-05T19:31:20.525Z,3.58
2022-12-05T19:33:54.724Z,3.38
2022-12-05T19:36:31.701Z,3.05
2022-12-05T19:38:59.749Z,2.13
2022-12-05T19:41:30.450Z,2.40
2022-12-05T19:44:01.800Z,3.22
2022-12-05T19:46:31.054Z,3.35
2022-12-05T19:49:04.107Z,2.97
2022-12-05T19:51:33.113Z,3.60
2022-12-05T19:54:02.476Z,2.67
2022-12-05T19:56:31.502Z,3.17
2022-12-05T19:58:59.730Z,3.25
2022-12-05T20:01:30.652Z,2.88
2022-12-05T20:04:00.524Z,2.00
2022-12-05T20:06:35.063Z,2.78
2022-12-05T20:09:03.391Z,3.25
2022-12-05T20:11:31.567Z,2.50
2022-12-05T20:14:00.811Z,3.25
2022-12-05T20:16:29.317Z,3.10
2022-12-05T20:18:59.473Z,3.80
2022-12-05T20:21:30.479Z,7.75
2022-12-05T20:24:00.880Z,4.70
2022-12-05T20:26:30.946Z,6.93
2022-12-05T20:28:59.410Z,5.28
2022-12-05T20:31:32.757Z,3.50
2022-12-05T20:34:00.399Z,3.47
2022-12-05T20:36:32.365Z,2.90
2022-12-05T20:39:06.542Z,3.72
2022-12-05T20:41:34.529Z,4.05
2022-12-05T20:44:05.008Z,4.07
2022-12-05T20:46:32.937Z,4.40
2022-12-05T20:49:00.513Z,5.15
2022-12-05T20:51:32.978Z,6.18
2022-12-05T20:54:02.283Z,11.05
2022-12-05T20:56:32.288Z,14.27
2022-12-05T20:59:02.210Z,11.45
2022-12-05T21:01:31.843Z,6.07
2022-12-05T21:03:59.989Z,6.50
2022-12-05T21:06:40.576Z,5.90
2022-12-05T21:09:18.440Z,4.15
2022-12-05T21:11:45.903Z,4.68
2022-12-05T21:14:13.404Z,3.63
2022-12-05T21:16:41.086Z,3.63
2022-12-05T21:19:08.931Z,3.07
2022-12-05T21:21:36.477Z,3.10
2022-12-05T21:24:05.336Z,2.93
2022-12-05T21:26:35.113Z,2.50
2022-12-05T21:29:03.864Z,2.43
2022-12-05T21:31:37.762Z,2.63
2022-12-05T21:34:09.096Z,2.50
2022-12-05T21:36:37.580Z,2.50
2022-12-05T21:39:08.871Z,2.30
2022-12-05T21:41:36.283Z,1.75
2022-12-05T21:44:04.173Z,1.77
2022-12-05T21:46:31.970Z,1.53
2022-12-05T21:48:59.582Z,2.47
2022-12-05T21:51:27.046Z,2.00
2022-12-05T21:53:54.593Z,1.97
2022-12-05T21:56:23.601Z,2.10
2022-12-05T21:58:51.602Z,1.47
2022-12-05T22:01:21.874Z,2.00
2022-12-05T22:03:52.815Z,2.17
2022-12-05T22:06:20.805Z,1.63
2022-12-05T22:08:48.501Z,1.47
2022-12-05T22:11:21.903Z,1.40
2022-12-05T22:13:49.940Z,1.30
2022-12-05T22:16:18.152Z,0.90
2022-12-05T22:18:46.381Z,1.70
2022-12-05T22:21:16.578Z,1.37
2022-12-05T22:23:44.131Z,1.70
2022-12-05T22:26:17.311Z,1.70
2022-12-05T22:28:45.362Z,1.25
2022-12-05T22:31:17.395Z,1.30
2022-12-05T22:36:15.206Z,1.53
2022-12-05T22:38:45.025Z,1.60
2022-12-05T22:41:15.467Z,2.27
2022-12-05T22:43:45.024Z,1.13
2022-12-05T22:46:15.001Z,1.85
2022-12-05T22:48:42.527Z,1.60
2022-12-05T22:51:10.323Z,1.40
2022-12-05T22:53:38.628Z,1.60
2022-12-05T22:56:14.692Z,1.00
2022-12-05T22:58:43.184Z,0.97
2022-12-05T23:01:22.528Z,1.53
2022-12-05T23:03:56.871Z,1.47
2022-12-05T23:06:24.570Z,1.47
2022-12-05T23:08:52.770Z,1.07
2022-12-05T23:11:21.024Z,1.23
2022-12-05T23:13:49.452Z,1.43
2022-12-05T23:16:22.588Z,0.90
2022-12-05T23:18:50.985Z,1.60
2022-12-05T23:21:36.855Z,1.70
2022-12-05T23:24:07.846Z,1.25
2022-12-05T23:26:44.335Z,1.00
2022-12-05T23:29:12.709Z,0.70
2022-12-05T23:31:41.006Z,1.10
2022-12-05T23:34:08.975Z,1.67
2022-12-05T23:36:36.791Z,1.33
2022-12-05T23:39:05.973Z,1.00
2022-12-05T23:41:33.601Z,1.50
2022-12-05T23:44:01.045Z,1.07
2022-12-05T23:46:29.220Z,1.30
2022-12-05T23:48:58.120Z,1.47
2022-12-05T23:51:28.833Z,1.23
2022-12-05T23:53:58.830Z,1.00
2022-12-05T23:56:28.812Z,1.37
2022-12-05T23:58:57.190Z,1.13
